Terminal Aerodrome Forecast
Issued by NWS Nashville, TN

Home | Current Version | Previous Version | Text Only | Print | Product List | Glossary On
Versions: 1 2 3 4 5 6 7 8 9 10 11 12 13
632
FTUS44 KOHX 222146 AAA
TAFBNA
TAF AMD
KBNA 222146Z 2222/2318 02010G18KT P6SM SCT250
     FM222300 02008KT P6SM SKC
     FM230600 02002KT P6SM SKC=

USA.gov is the U.S. government's official web portal to all federal, state and local government web resources and services.